Time;durP1;ratioP1;P1;durP2;ratioP2;P2;SDS_P1;SDS_P2;PMS_P1;PMS_P2;Temp;Humidity;BMP_temperature;BMP_pressure;BME280_temperature;BME280_humidity;BME280_pressure;Samples;Min_cycle;Max_cycle;Signal;HPM_P1;HPM_P2
2021/08/04 00:01:38;;;;;;;6.60;4.90;;;;;;;15.76;100.00;100146.03;5124507;27;20043;-80
2021/08/04 00:04:04;;;;;;;6.53;4.55;;;;;;;15.78;100.00;100152.13;5120206;28;20059;-79
2021/08/04 00:06:34;;;;;;;5.78;4.90;;;;;;;15.75;100.00;100144.31;5126272;27;20039;-79
2021/08/04 00:09:01;;;;;;;7.65;4.68;;;;;;;15.75;100.00;100147.84;5123433;28;20103;-79
2021/08/04 00:11:27;;;;;;;6.35;4.53;;;;;;;15.74;100.00;100148.81;5126336;27;20047;-79
2021/08/04 00:13:55;;;;;;;6.18;4.93;;;;;;;15.69;100.00;100145.66;5139718;27;20058;-79
2021/08/04 00:16:22;;;;;;;8.65;4.65;;;;;;;15.71;100.00;100146.41;5125626;27;20218;-79
2021/08/04 00:18:49;;;;;;;6.30;4.32;;;;;;;15.72;100.00;100156.09;5116266;28;20054;-79
2021/08/04 00:21:16;;;;;;;10.10;4.97;;;;;;;15.71;100.00;100151.72;5125461;28;20114;-79
2021/08/04 00:23:43;;;;;;;7.03;4.88;;;;;;;15.62;100.00;100139.03;5126414;28;20618;-79
2021/08/04 00:26:13;;;;;;;;;;;;;;;15.64;100.00;100150.44;5132509;27;20059;-79
2021/08/04 00:28:40;;;;;;;6.00;4.57;;;;;;;15.64;100.00;100147.78;5130045;27;19907;-80
2021/08/04 00:31:07;;;;;;;9.80;4.63;;;;;;;15.65;100.00;100151.31;5130241;28;20051;-81
2021/08/04 00:33:34;;;;;;;4.72;4.22;;;;;;;15.69;100.00;100156.31;5125195;27;20047;-79
2021/08/04 00:36:00;;;;;;;6.05;4.38;;;;;;;15.68;100.00;100146.59;5126228;28;20107;-79
2021/08/04 00:38:27;;;;;;;6.10;4.82;;;;;;;15.71;100.00;100142.88;5127272;27;20070;-79
2021/08/04 00:40:54;;;;;;;5.82;4.65;;;;;;;15.69;100.00;100147.47;5121919;28;20142;-81
2021/08/04 00:43:22;;;;;;;5.65;4.63;;;;;;;15.68;100.00;100148.41;5125760;28;20048;-81
2021/08/04 00:45:50;;;;;;;8.23;4.78;;;;;;;15.67;100.00;100147.56;5130716;27;20032;-80
2021/08/04 00:48:18;;;;;;;5.28;4.18;;;;;;;15.61;100.00;100140.00;5121401;27;20048;-79
2021/08/04 00:50:48;;;;;;;6.10;4.30;;;;;;;15.67;100.00;100136.88;5120955;27;20115;-81
2021/08/04 00:53:18;;;;;;;6.18;3.72;;;;;;;15.70;100.00;100141.16;5117820;28;20074;-81
2021/08/04 00:55:46;;;;;;;6.65;4.38;;;;;;;15.71;100.00;100134.84;5120231;27;20043;-81
2021/08/04 00:58:14;;;;;;;5.72;4.47;;;;;;;15.72;100.00;100137.41;5112000;28;20047;-79
2021/08/04 01:00:45;;;;;;;6.28;4.30;;;;;;;15.73;100.00;100135.59;5116392;27;20035;-79
2021/08/04 01:03:19;;;;;;;4.30;3.90;;;;;;;15.74;100.00;100140.81;5119281;28;20044;-81
2021/08/04 01:05:59;;;;;;;6.78;4.30;;;;;;;15.76;100.00;100146.03;5125598;28;20047;-81
2021/08/04 01:08:31;;;;;;;6.10;4.35;;;;;;;15.75;100.00;100147.84;5127079;27;20087;-80
2021/08/04 01:11:03;;;;;;;6.32;4.10;;;;;;;15.72;100.00;100140.09;5139001;27;20058;-82
2021/08/04 01:13:40;;;;;;;9.65;4.38;;;;;;;15.75;100.00;100139.84;5134869;27;20154;-81
2021/08/04 01:16:18;;;;;;;6.95;4.55;;;;;;;15.74;100.00;100138.13;5116801;28;20055;-81
2021/08/04 01:19:10;;;;;;;4.65;4.15;;;;;;;15.74;100.00;100134.66;5115865;28;20483;-81
2021/08/04 01:22:01;;;;;;;7.13;4.57;;;;;;;15.73;100.00;100131.13;5120098;27;20056;-81
2021/08/04 01:24:50;;;;;;;5.10;4.38;;;;;;;15.71;100.00;100138.38;5121116;28;20108;-81
2021/08/04 01:27:18;;;;;;;5.75;4.47;;;;;;;15.69;100.00;100137.63;5128611;27;20040;-81
2021/08/04 01:29:49;;;;;;;8.27;4.72;;;;;;;15.70;100.00;100136.69;5128611;28;20048;-81
2021/08/04 01:32:18;;;;;;;6.60;4.53;;;;;;;15.69;100.00;100131.44;5132328;27;20047;-80
2021/08/04 01:34:46;;;;;;;5.03;4.55;;;;;;;15.72;100.00;100136.56;5133194;27;20048;-80
2021/08/04 01:37:14;;;;;;;6.93;4.70;;;;;;;15.73;100.00;100141.81;5118552;27;20483;-81
2021/08/04 01:39:44;;;;;;;5.22;4.25;;;;;;;15.72;100.00;100133.91;5122035;27;20040;-81
2021/08/04 01:42:12;;;;;;;8.32;4.95;;;;;;;15.72;100.00;100132.09;5122850;28;20063;-81
2021/08/04 01:44:39;;;;;;;6.28;4.38;;;;;;;15.77;100.00;100134.41;5125671;27;20035;-81
2021/08/04 01:47:07;;;;;;;7.65;5.05;;;;;;;15.82;100.00;100139.41;5118864;27;20066;-81
2021/08/04 01:49:34;;;;;;;6.70;4.50;;;;;;;15.81;100.00;100138.56;5113294;28;20159;-80
2021/08/04 01:52:01;;;;;;;7.68;5.22;;;;;;;15.81;100.00;100133.22;5118397;27;20063;-81
2021/08/04 01:54:29;;;;;;;6.55;5.03;;;;;;;15.79;100.00;100125.31;5112172;28;20048;-81
2021/08/04 01:56:56;;;;;;;6.75;5.70;;;;;;;15.83;100.00;100135.78;5107377;28;20050;-80
2021/08/04 01:59:23;;;;;;;7.97;4.97;;;;;;;15.81;100.00;100132.38;5115357;27;20130;-79
2021/08/04 02:01:52;;;;;;;8.27;6.00;;;;;;;15.82;100.00;100136.75;5126590;27;20063;-80
2021/08/04 02:04:19;;;;;;;7.20;5.85;;;;;;;15.83;100.00;100133.09;5104417;28;20061;-81
2021/08/04 02:06:45;;;;;;;10.20;6.07;;;;;;;15.85;100.00;100124.03;5110823;28;20056;-80
2021/08/04 02:09:12;;;;;;;7.55;5.97;;;;;;;15.85;100.00;100123.19;5115350;28;20047;-81
2021/08/04 02:11:48;;;;;;;12.07;7.00;;;;;;;15.86;100.00;100124.88;5122784;27;20047;-80
2021/08/04 02:14:27;;;;;;;7.43;6.45;;;;;;;15.86;100.00;100125.72;5115412;28;20125;-80
2021/08/04 02:17:04;;;;;;;8.68;6.78;;;;;;;15.88;100.00;100125.63;5112906;28;20056;-80
2021/08/04 02:19:50;;;;;;;9.10;7.20;;;;;;;15.85;99.81;100124.03;5108040;28;20085;-80
2021/08/04 02:22:30;;;;;;;10.23;7.35;;;;;;;15.81;100.00;100117.19;5110667;28;20051;-79
2021/08/04 02:25:06;;;;;;;;;;;;;;;15.79;99.68;100130.66;5114242;28;20378;-80
2021/08/04 02:27:37;;;;;;;9.32;7.45;;;;;;;15.74;99.73;100126.63;5109165;28;19926;-79
2021/08/04 02:30:10;;;;;;;9.63;7.53;;;;;;;15.71;100.00;100126.84;5112677;28;20119;-81
2021/08/04 02:32:38;;;;;;;10.05;6.95;;;;;;;15.67;100.00;100120.88;5109698;28;20050;-78
2021/08/04 02:35:06;;;;;;;10.38;7.43;;;;;;;15.62;100.00;100122.16;5115646;28;20051;-79
2021/08/04 02:37:34;;;;;;;9.52;7.65;;;;;;;15.64;100.00;100121.09;5121402;28;20111;-79
2021/08/04 02:40:03;;;;;;;11.35;8.63;;;;;;;15.64;100.00;100120.25;5124173;28;20053;-79
2021/08/04 02:42:30;;;;;;;9.73;8.02;;;;;;;15.62;100.00;100125.69;5124817;28;20028;-80
2021/08/04 02:44:56;;;;;;;11.18;7.85;;;;;;;15.60;100.00;100124.94;5124323;28;20052;-80
2021/08/04 02:47:23;;;;;;;9.23;7.28;;;;;;;15.58;100.00;100121.56;5114500;28;20048;-81
2021/08/04 02:49:50;;;;;;;9.57;7.07;;;;;;;15.59;100.00;100133.03;5116661;28;20136;-80
2021/08/04 02:52:19;;;;;;;9.02;6.45;;;;;;;15.56;100.00;100126.16;5112455;28;20080;-80
2021/08/04 02:54:46;;;;;;;9.98;6.75;;;;;;;15.56;100.00;100133.28;5120188;28;20032;-80
2021/08/04 02:57:13;;;;;;;10.00;6.70;;;;;;;15.52;100.00;100131.75;5124684;28;20088;-80
2021/08/04 02:59:40;;;;;;;8.85;7.55;;;;;;;15.52;100.00;100129.09;5122569;28;20056;-81
2021/08/04 03:02:07;;;;;;;9.93;6.60;;;;;;;15.50;100.00;100126.53;5109221;28;20048;-80
2021/08/04 03:04:34;;;;;;;10.10;8.02;;;;;;;15.53;100.00;100144.16;5113468;28;20108;-81
2021/08/04 03:07:01;;;;;;;8.85;7.90;;;;;;;15.56;100.00;100138.63;5117830;28;20143;-80
2021/08/04 03:09:27;;;;;;;10.18;8.15;;;;;;;15.53;100.00;100126.31;5107992;28;20462;-80
2021/08/04 03:11:54;;;;;;;11.15;8.15;;;;;;;15.49;100.00;100122.16;5119167;28;20043;-78
2021/08/04 03:14:20;;;;;;;12.95;9.93;;;;;;;15.51;100.00;100130.06;5125673;28;20050;-79
2021/08/04 03:16:47;;;;;;;11.18;8.90;;;;;;;15.52;100.00;100134.44;5108761;28;20575;-80
2021/08/04 03:19:14;;;;;;;10.93;9.25;;;;;;;15.52;100.00;100132.63;5111878;28;20035;-81
2021/08/04 03:21:42;;;;;;;12.10;10.02;;;;;;;15.50;100.00;100134.53;5111565;28;20525;-80
2021/08/04 03:24:08;;;;;;;11.23;9.35;;;;;;;15.51;100.00;100130.06;5116306;28;20043;-81
2021/08/04 03:26:35;;;;;;;12.20;9.55;;;;;;;15.53;100.00;100130.81;5108692;28;20044;-81
2021/08/04 03:29:03;;;;;;;11.23;9.00;;;;;;;15.51;100.00;100125.56;5109176;28;20040;-80
2021/08/04 03:31:29;;;;;;;11.20;8.60;;;;;;;15.55;100.00;100137.78;5116794;28;20058;-81
2021/08/04 03:33:56;;;;;;;13.70;8.43;;;;;;;15.59;100.00;100135.72;5115347;28;20044;-80
2021/08/04 03:36:24;;;;;;;12.52;8.90;;;;;;;15.61;100.00;100137.31;5122976;28;20163;-80
2021/08/04 03:38:50;;;;;;;10.43;8.93;;;;;;;15.58;100.00;100129.56;5123399;28;20107;-80
2021/08/04 03:41:17;;;;;;;9.23;7.93;;;;;;;15.57;100.00;100138.53;5121262;28;20112;-79
2021/08/04 03:43:44;;;;;;;10.13;8.10;;;;;;;15.58;100.00;100132.22;5118955;28;20107;-79
2021/08/04 03:46:10;;;;;;;11.70;7.88;;;;;;;15.61;100.00;100148.00;5120109;27;20058;-81
2021/08/04 03:48:37;;;;;;;8.10;7.25;;;;;;;15.65;100.00;100143.28;5125446;28;20039;-79
2021/08/04 03:51:04;;;;;;;9.75;8.10;;;;;;;15.68;99.67;100137.75;5119556;28;20052;-80
2021/08/04 03:53:31;;;;;;;10.68;7.45;;;;;;;15.71;99.61;100148.22;5113287;27;20054;-80
2021/08/04 03:55:58;;;;;;;8.63;7.43;;;;;;;15.72;98.87;100145.44;5110872;28;20133;-80
2021/08/04 03:58:24;;;;;;;9.18;7.60;;;;;;;15.75;99.00;100145.19;5121932;28;20062;-81
2021/08/04 04:00:51;;;;;;;9.68;7.20;;;;;;;15.76;98.92;100149.56;5121705;28;20092;-82
2021/08/04 04:03:18;;;;;;;8.85;6.32;;;;;;;15.76;99.07;100146.91;5126839;28;20055;-80
2021/08/04 04:05:45;;;;;;;9.70;6.10;;;;;;;15.78;99.07;100142.28;5129669;27;20047;-82
2021/08/04 04:08:11;;;;;;;9.38;6.78;;;;;;;15.77;98.72;100145.94;5123416;28;20107;-82
2021/08/04 04:10:38;;;;;;;11.85;6.80;;;;;;;15.73;98.92;100147.13;5121428;27;20101;-80
2021/08/04 04:13:05;;;;;;;8.82;6.97;;;;;;;15.72;99.07;100144.56;5114925;27;20074;-82
2021/08/04 04:15:32;;;;;;;12.15;6.65;;;;;;;15.70;99.42;100150.03;5125069;27;20040;-82
2021/08/04 04:17:58;;;;;;;10.15;6.40;;;;;;;15.72;99.38;100149.91;5113087;27;20317;-82
2021/08/04 04:20:25;;;;;;;10.95;6.72;;;;;;;15.72;99.68;100157.94;5121159;27;20055;-82
2021/08/04 04:22:52;;;;;;;10.32;7.38;;;;;;;15.71;99.47;100156.22;5119861;27;20039;-81
2021/08/04 04:25:21;;;;;;;8.40;7.13;;;;;;;15.73;99.32;100159.63;5118406;27;20047;-79
2021/08/04 04:27:48;;;;;;;8.48;7.22;;;;;;;15.69;99.12;100152.81;5122963;27;20103;-82
2021/08/04 04:30:15;;;;;;;8.73;6.90;;;;;;;15.68;98.79;100162.63;5126206;27;20048;-81
2021/08/04 04:32:42;;;;;;;9.10;6.32;;;;;;;15.66;98.73;100161.88;5118873;27;20051;-81
2021/08/04 04:35:10;;;;;;;12.13;7.13;;;;;;;15.67;99.10;100168.94;5117802;27;20110;-80
2021/08/04 04:37:36;;;;;;;9.45;6.18;;;;;;;15.71;99.15;100167.75;5123042;28;20051;-81
2021/08/04 04:40:03;;;;;;;8.40;6.13;;;;;;;15.74;98.92;100170.16;5120425;27;20050;-82
2021/08/04 04:42:30;;;;;;;7.97;5.80;;;;;;;15.78;98.61;100162.81;5119822;28;20047;-81
2021/08/04 04:44:56;;;;;;;10.18;5.90;;;;;;;15.80;98.34;100163.56;5126445;27;20062;-82
2021/08/04 04:47:23;;;;;;;9.05;5.80;;;;;;;15.82;98.41;100160.78;5126493;27;20064;-79
2021/08/04 04:49:50;;;;;;;6.65;5.72;;;;;;;15.84;98.13;100164.19;5122292;28;20034;-80
2021/08/04 04:52:16;;;;;;;7.03;5.90;;;;;;;15.85;98.28;100168.56;5124494;28;20059;-81
2021/08/04 04:54:43;;;;;;;12.90;6.20;;;;;;;15.85;98.02;100173.91;5124385;28;20488;-82
2021/08/04 04:57:10;;;;;;;9.05;6.00;;;;;;;15.84;98.21;100174.88;5126962;27;20095;-81
2021/08/04 04:59:37;;;;;;;9.15;6.55;;;;;;;15.82;98.55;100169.63;5125897;27;20103;-80
2021/08/04 05:02:04;;;;;;;10.63;6.35;;;;;;;15.85;99.00;100172.09;5128361;27;20043;-82
2021/08/04 05:04:33;;;;;;;9.10;6.87;;;;;;;15.88;99.15;100171.03;5111997;27;20387;-82
2021/08/04 05:06:59;;;;;;;9.15;7.00;;;;;;;15.93;98.29;100168.84;5118048;27;20054;-82
2021/08/04 05:09:28;;;;;;;9.07;7.60;;;;;;;15.99;97.71;100174.59;5107933;27;20043;-81
2021/08/04 05:11:55;;;;;;;8.43;6.55;;;;;;;16.02;97.50;100177.06;5113642;27;20059;-79
2021/08/04 05:14:22;;;;;;;11.73;6.93;;;;;;;16.02;97.12;100173.53;5115057;27;20032;-80
2021/08/04 05:16:53;;;;;;;7.70;6.90;;;;;;;16.02;97.38;100173.53;5111950;27;20047;-80
2021/08/04 05:19:20;;;;;;;8.38;7.00;;;;;;;16.06;97.11;100183.00;5119589;27;20050;-81
2021/08/04 05:21:48;;;;;;;8.63;6.68;;;;;;;16.04;96.50;100168.94;5121080;28;20048;-82
2021/08/04 05:24:14;;;;;;;8.77;6.90;;;;;;;16.11;96.96;100183.53;5114237;27;20047;-80
2021/08/04 05:26:41;;;;;;;7.25;6.28;;;;;;;16.15;96.92;100177.00;5110178;28;20039;-81
2021/08/04 05:29:08;;;;;;;7.72;6.15;;;;;;;16.14;96.70;100178.84;5106050;28;20123;-81
2021/08/04 05:31:34;;;;;;;7.25;5.95;;;;;;;16.14;96.47;100181.50;5110460;27;20122;-79
2021/08/04 05:34:01;;;;;;;9.18;7.28;;;;;;;16.14;96.45;100186.00;5108184;28;20052;-80
2021/08/04 05:36:28;;;;;;;9.02;7.47;;;;;;;16.12;96.33;100185.25;5112866;27;20051;-80
2021/08/04 05:38:57;;;;;;;9.70;7.95;;;;;;;16.18;96.26;100182.13;5110148;27;20863;-80
2021/08/04 05:41:24;;;;;;;11.35;8.40;;;;;;;16.19;95.83;100175.84;5112415;27;20075;-81
2021/08/04 05:43:51;;;;;;;14.73;7.97;;;;;;;16.22;95.79;100182.75;5120828;27;20103;-82
2021/08/04 05:46:17;;;;;;;13.30;8.57;;;;;;;16.26;95.72;100181.56;5114584;27;20055;-80
2021/08/04 05:48:44;;;;;;;11.55;8.50;;;;;;;16.25;95.38;100174.50;5110436;27;20051;-81
2021/08/04 05:51:11;;;;;;;10.00;8.82;;;;;;;16.29;95.68;100182.19;5107330;27;20059;-81
2021/08/04 05:53:37;;;;;;;11.63;9.25;;;;;;;16.34;95.38;100180.03;5111883;27;20057;-82
2021/08/04 05:56:04;;;;;;;10.88;9.00;;;;;;;16.40;95.34;100182.25;5114264;27;20771;-81
2021/08/04 05:58:32;;;;;;;10.55;8.75;;;;;;;16.47;94.88;100180.81;5113162;27;20049;-81
2021/08/04 06:00:58;;;;;;;10.20;8.68;;;;;;;16.54;94.67;100180.34;5106004;28;20039;-79
2021/08/04 06:03:25;;;;;;;12.77;8.80;;;;;;;16.58;94.41;100176.47;5111157;28;20048;-81
2021/08/04 06:05:52;;;;;;;12.52;9.25;;;;;;;16.65;94.13;100181.31;5105416;27;20047;-81
2021/08/04 06:08:19;;;;;;;11.75;10.20;;;;;;;16.73;93.64;100186.06;5104462;27;20134;-79
2021/08/04 06:10:46;;;;;;;11.77;9.73;;;;;;;16.76;93.25;100188.50;5108836;28;20432;-81
2021/08/04 06:13:13;;;;;;;13.68;12.18;;;;;;;16.75;93.01;100181.44;5109618;27;20107;-80
2021/08/04 06:15:47;;;;;;;13.80;12.25;;;;;;;16.78;92.55;100179.41;5108648;27;20040;-81
2021/08/04 06:18:14;;;;;;;14.40;11.93;;;;;;;16.94;92.36;100189.78;5103734;28;20043;-81
2021/08/04 06:20:41;;;;;;;17.02;13.57;;;;;;;17.00;91.17;100188.47;5110401;28;20061;-81
2021/08/04 06:23:34;;;;;;;15.27;13.68;;;;;;;17.03;90.55;100191.72;5106698;28;20079;-81
2021/08/04 06:26:01;;;;;;;14.43;12.93;;;;;;;17.19;90.90;100194.09;5112312;28;20105;-81
2021/08/04 06:28:42;;;;;;;13.45;12.05;;;;;;;17.44;87.75;100201.06;5118011;28;20059;-82
2021/08/04 06:31:09;;;;;;;14.65;11.63;;;;;;;17.45;86.83;100203.63;5125461;28;20051;-81
2021/08/04 06:33:38;;;;;;;15.25;12.18;;;;;;;17.50;86.82;100208.59;5126057;28;20052;-80
2021/08/04 06:36:10;;;;;;;17.20;12.90;;;;;;;17.40;85.92;100205.81;5139449;28;20036;-80
2021/08/04 06:38:37;;;;;;;16.95;13.52;;;;;;;17.34;85.71;100213.44;5138142;28;20104;-80
2021/08/04 06:41:04;;;;;;;18.52;16.50;;;;;;;17.40;86.36;100202.28;5134732;27;20498;-80
2021/08/04 06:43:32;;;;;;;21.35;17.00;;;;;;;17.54;85.74;100207.38;5136709;27;20040;-79
2021/08/04 06:45:59;;;;;;;16.15;14.45;;;;;;;17.72;85.16;100214.00;5122254;27;20039;-80
2021/08/04 06:48:27;;;;;;;16.75;14.40;;;;;;;17.81;84.43;100218.63;5154288;27;20070;-81
2021/08/04 06:50:53;;;;;;;16.17;13.85;;;;;;;17.81;83.56;100213.25;5165295;27;20058;-80
2021/08/04 06:53:22;;;;;;;17.00;14.23;;;;;;;17.76;84.12;100220.84;5145770;27;20047;-82
2021/08/04 06:55:49;;;;;;;16.65;14.93;;;;;;;17.79;84.39;100217.88;5152413;27;20039;-79
2021/08/04 06:58:15;;;;;;;15.18;13.48;;;;;;;17.77;83.28;100222.53;5151674;27;20039;-81
2021/08/04 07:00:44;;;;;;;15.50;13.50;;;;;;;17.74;82.76;100217.41;5151529;27;20077;-82
2021/08/04 07:03:12;;;;;;;20.27;15.15;;;;;;;17.79;82.85;100212.53;5131284;27;20050;-81
2021/08/04 07:05:40;;;;;;;13.05;11.75;;;;;;;17.75;82.18;100212.91;5136962;27;20077;-79
2021/08/04 07:08:07;;;;;;;12.90;11.38;;;;;;;17.73;82.50;100207.69;5142211;27;20578;-81
2021/08/04 07:10:51;;;;;;;12.23;9.93;;;;;;;17.80;82.75;100213.38;5152768;27;20827;-81
2021/08/04 07:13:18;;;;;;;12.95;9.98;;;;;;;17.91;82.01;100218.75;5150909;27;20043;-82
2021/08/04 07:15:45;;;;;;;13.93;10.38;;;;;;;17.85;81.38;100212.06;5162876;27;20107;-82
2021/08/04 07:18:11;;;;;;;12.13;10.98;;;;;;;17.80;82.03;100222.28;5146453;27;20137;-82
2021/08/04 07:20:38;;;;;;;13.15;11.30;;;;;;;17.83;82.37;100219.34;5151383;27;20049;-81
2021/08/04 07:23:05;;;;;;;16.35;12.07;;;;;;;17.93;82.47;100224.84;5152535;27;20133;-81
2021/08/04 07:25:33;;;;;;;14.52;11.52;;;;;;;18.03;81.90;100228.47;5150534;27;20057;-81
2021/08/04 07:28:02;;;;;;;14.15;12.75;;;;;;;17.98;79.98;100224.47;5154073;27;20034;-82
2021/08/04 07:30:30;;;;;;;15.85;12.88;;;;;;;18.00;80.58;100223.38;5152113;27;20653;-82
2021/08/04 07:32:57;;;;;;;13.52;12.13;;;;;;;18.18;80.28;100219.19;5157309;27;20043;-81
2021/08/04 07:35:24;;;;;;;13.32;11.48;;;;;;;18.50;79.37;100223.75;5133784;27;20042;-81
2021/08/04 07:37:51;;;;;;;13.27;12.00;;;;;;;18.64;77.92;100220.81;5150050;27;20497;-81
2021/08/04 07:40:19;;;;;;;11.20;10.10;;;;;;;18.77;79.05;100228.69;5152234;27;20043;-82
2021/08/04 07:42:47;;;;;;;13.80;12.40;;;;;;;18.97;76.36;100224.31;5152560;27;20502;-82
2021/08/04 07:45:15;;;;;;;14.85;10.85;;;;;;;19.08;75.16;100227.78;5149305;27;20057;-80
2021/08/04 07:47:42;;;;;;;11.15;9.50;;;;;;;19.04;75.31;100221.00;5151956;27;20131;-80
2021/08/04 07:50:09;;;;;;;13.07;11.38;;;;;;;19.14;75.44;100224.59;5149594;27;20057;-82
2021/08/04 07:52:36;;;;;;;12.20;10.90;;;;;;;19.00;75.26;100222.25;5150673;27;20127;-82
2021/08/04 07:55:06;;;;;;;10.60;9.60;;;;;;;18.86;76.63;100218.03;5154988;27;20047;-82
2021/08/04 07:57:33;;;;;;;12.48;10.18;;;;;;;18.99;77.42;100222.38;5149054;27;20047;-82
2021/08/04 08:00:00;;;;;;;10.55;8.90;;;;;;;19.08;76.19;100211.69;5153656;27;20038;-81
2021/08/04 08:02:28;;;;;;;10.93;9.82;;;;;;;19.34;74.20;100220.22;5148336;27;20043;-82
2021/08/04 08:04:57;;;;;;;10.93;9.82;;;;;;;19.73;72.07;100213.22;5148736;27;20051;-81
2021/08/04 08:07:24;;;;;;;11.80;10.02;;;;;;;19.99;71.54;100216.28;5151555;27;20046;-81
2021/08/04 08:09:51;;;;;;;11.05;9.40;;;;;;;20.11;70.70;100211.69;5154381;27;20042;-81
2021/08/04 08:12:18;;;;;;;9.82;8.52;;;;;;;20.36;70.15;100213.88;5147766;27;20047;-79
2021/08/04 08:14:45;;;;;;;11.70;9.10;;;;;;;20.51;68.99;100215.19;5148566;27;20042;-81
2021/08/04 08:17:12;;;;;;;11.45;10.25;;;;;;;20.52;68.79;100211.50;5146619;27;20338;-80
2021/08/04 08:19:39;;;;;;;14.18;9.27;;;;;;;20.40;69.00;100215.31;5167501;27;20053;-80
2021/08/04 08:22:06;;;;;;;12.70;9.52;;;;;;;20.16;68.76;100209.41;5150350;27;20118;-79
2021/08/04 08:24:33;;;;;;;9.60;7.50;;;;;;;20.20;69.34;100216.22;5155535;27;20528;-80
2021/08/04 08:26:59;;;;;;;8.68;7.78;;;;;;;20.23;69.23;100206.03;5138796;27;20271;-80
2021/08/04 08:29:26;;;;;;;9.23;8.32;;;;;;;20.24;68.61;100206.91;5167300;27;20042;-80
2021/08/04 08:31:53;;;;;;;12.65;9.25;;;;;;;20.33;67.24;100206.06;5150772;27;20402;-81
2021/08/04 08:34:20;;;;;;;11.43;7.97;;;;;;;20.30;66.48;100206.34;5156321;27;20047;-81
2021/08/04 08:36:46;;;;;;;10.00;8.20;;;;;;;20.18;67.43;100204.75;5152592;27;20125;-80
2021/08/04 08:39:13;;;;;;;8.25;7.13;;;;;;;20.14;68.43;100204.19;5155057;27;20050;-81
2021/08/04 08:41:45;;;;;;;9.65;8.32;;;;;;;20.31;69.25;100202.66;5136079;27;20126;-80
2021/08/04 08:44:12;;;;;;;11.80;8.30;;;;;;;20.54;67.28;100200.59;5159907;27;20133;-79
2021/08/04 08:46:39;;;;;;;8.60;7.80;;;;;;;20.78;67.27;100195.63;5155005;27;20090;-87
2021/08/04 08:49:07;;;;;;;9.07;8.23;;;;;;;20.90;64.29;100185.59;5170968;27;20069;-83
2021/08/04 08:51:34;;;;;;;9.27;7.32;;;;;;;20.91;65.31;100190.00;5159541;27;20051;-84
2021/08/04 08:54:03;;;;;;;11.65;7.55;;;;;;;21.01;63.42;100183.59;5161831;27;20130;-84
2021/08/04 08:56:34;;;;;;;6.75;5.90;;;;;;;20.91;64.16;100179.22;5136915;27;20762;-87
2021/08/04 08:59:10;;;;;;;9.27;7.40;;;;;;;20.80;63.88;100180.19;5153663;27;20104;-86
2021/08/04 09:01:38;;;;;;;8.13;7.43;;;;;;;20.68;63.79;100184.03;5155455;27;20134;-85
2021/08/04 09:04:10;;;;;;;8.38;7.57;;;;;;;20.43;64.91;100181.91;5157522;27;20471;-86
2021/08/04 09:06:55;;;;;;;6.78;6.18;;;;;;;20.23;65.35;100184.53;5152431;27;20056;-85
2021/08/04 09:09:30;;;;;;;7.85;7.13;;;;;;;20.13;66.17;100177.44;5132655;27;20042;-83
2021/08/04 09:12:17;;;;;;;9.25;6.55;;;;;;;20.13;67.09;100177.44;5139364;27;20043;-87
2021/08/04 09:14:48;;;;;;;8.38;7.18;;;;;;;20.19;67.66;100166.97;5145888;27;20054;-83
2021/08/04 09:17:17;;;;;;;8.93;8.00;;;;;;;20.39;66.77;100172.41;5149007;27;20035;-84
2021/08/04 09:19:53;;;;;;;8.30;7.43;;;;;;;20.55;65.59;100168.19;5146259;27;20066;-83
2021/08/04 09:22:24;;;;;;;9.20;8.27;;;;;;;20.77;64.83;100163.50;5153510;27;20055;-86
2021/08/04 09:24:54;;;;;;;7.45;6.75;;;;;;;21.00;64.08;100163.03;5143687;27;20058;-81
2021/08/04 09:27:44;;;;;;;8.02;6.78;;;;;;;21.13;63.76;100167.28;5139550;27;20594;-79
2021/08/04 09:30:13;;;;;;;;;;;;;;;21.18;63.07;100163.16;5121282;27;20065;-81
2021/08/04 09:32:40;;;;;;;8.43;7.18;;;;;;;21.22;62.72;100166.44;5134183;27;19919;-82
2021/08/04 09:35:16;;;;;;;7.80;6.38;;;;;;;21.25;62.78;100161.59;5127866;27;20072;-82
2021/08/04 09:37:45;;;;;;;8.27;7.03;;;;;;;21.25;60.98;100160.78;5131677;27;20134;-83
2021/08/04 09:40:15;;;;;;;6.87;6.17;;;;;;;21.24;60.93;100154.53;5143678;27;20047;-83
2021/08/04 09:42:56;;;;;;;6.10;5.47;;;;;;;21.22;62.13;100145.75;5135987;27;20053;-83
2021/08/04 09:45:48;;;;;;;6.85;6.10;;;;;;;21.42;62.02;100153.75;5114898;27;20055;-85
2021/08/04 09:48:25;;;;;;;7.10;6.43;;;;;;;21.57;59.92;100142.34;5137144;27;20035;-82
2021/08/04 09:51:00;;;;;;;7.13;6.18;;;;;;;21.59;59.11;100148.44;5118948;27;20050;-83
2021/08/04 09:53:33;;;;;;;6.50;5.80;;;;;;;21.50;58.25;100152.03;5148669;27;20047;-83
2021/08/04 09:56:13;;;;;;;7.55;5.95;;;;;;;21.43;59.02;100152.75;5148610;27;20063;-83
2021/08/04 09:58:52;;;;;;;10.75;5.82;;;;;;;21.37;59.69;100146.13;5148756;27;20043;-83
2021/08/04 10:01:22;;;;;;;6.25;4.95;;;;;;;21.46;60.43;100139.00;5151535;27;20050;-83
2021/08/04 10:04:06;;;;;;;6.32;5.55;;;;;;;21.64;59.37;100140.75;5152367;27;20043;-84
2021/08/04 10:06:37;;;;;;;6.40;5.10;;;;;;;21.89;58.34;100144.59;5130641;27;20043;-83
2021/08/04 10:09:09;;;;;;;5.75;5.18;;;;;;;22.14;57.41;100129.59;5142582;27;20107;-83
2021/08/04 10:11:43;;;;;;;6.53;5.30;;;;;;;22.26;56.91;100124.81;5141218;27;20050;-83
2021/08/04 10:14:16;;;;;;;7.88;5.53;;;;;;;22.30;56.08;100123.50;5133555;27;20449;-84
2021/08/04 10:16:46;;;;;;;6.15;5.55;;;;;;;22.37;54.63;100138.06;5136448;27;20043;-83
2021/08/04 10:19:13;;;;;;;5.95;5.43;;;;;;;22.21;54.05;100130.66;5114613;27;20074;-85
2021/08/04 10:21:43;;;;;;;7.13;5.30;;;;;;;22.20;54.40;100138.91;5132225;27;20051;-84
2021/08/04 10:24:14;;;;;;;6.28;5.00;;;;;;;22.26;53.01;100124.81;5126176;27;20055;-85
2021/08/04 10:26:42;;;;;;;6.32;5.13;;;;;;;22.27;53.46;100118.41;5133513;27;20054;-86
2021/08/04 10:29:10;;;;;;;7.85;4.85;;;;;;;22.27;52.80;100118.41;5136242;27;20047;-84
2021/08/04 10:31:42;;;;;;;5.22;4.50;;;;;;;22.38;53.64;100121.72;5121695;28;20072;-84
2021/08/04 10:34:26;;;;;;;7.25;4.80;;;;;;;22.53;53.23;100124.72;5144070;27;20072;-86
2021/08/04 10:36:57;;;;;;;4.50;4.10;;;;;;;22.66;52.09;100127.91;5148102;27;20103;-83
2021/08/04 10:39:26;;;;;;;6.57;4.85;;;;;;;22.84;52.12;100119.78;5148240;28;20153;-83
2021/08/04 10:42:06;;;;;;;6.93;5.47;;;;;;;23.06;50.86;100111.19;5148197;28;20039;-84
2021/08/04 10:44:35;;;;;;;7.70;4.78;;;;;;;23.02;51.29;100109.78;5148463;28;20039;-83
2021/08/04 10:47:06;;;;;;;5.03;4.45;;;;;;;23.00;51.41;100102.84;5150994;28;20413;-86
2021/08/04 10:49:36;;;;;;;5.00;4.13;;;;;;;23.02;51.57;100106.25;5138053;28;20029;-82
2021/08/04 10:52:10;;;;;;;5.85;4.95;;;;;;;22.92;51.35;100105.50;5150173;27;20069;-83
2021/08/04 10:55:04;;;;;;;5.55;3.88;;;;;;;22.80;53.24;100113.03;5141742;27;20100;-83
2021/08/04 10:57:34;;;;;;;4.60;4.20;;;;;;;22.70;52.63;100113.06;5153831;27;20110;-85
2021/08/04 11:00:34;;;;;;;5.00;4.50;;;;;;;22.42;52.95;100119.56;5152522;27;20073;-85
2021/08/04 11:03:29;;;;;;;5.45;4.10;;;;;;;22.27;55.55;100110.34;5095568;27;20043;-85
2021/08/04 11:06:07;;;;;;;5.43;4.57;;;;;;;22.07;56.00;100097.97;5138252;27;20100;-85
2021/08/04 11:08:34;;;;;;;6.80;5.07;;;;;;;21.93;56.21;100102.88;5143590;27;20039;-83
2021/08/04 11:11:01;;;;;;;5.72;4.60;;;;;;;21.83;56.63;100104.78;5143215;27;20035;-84
2021/08/04 11:13:52;;;;;;;5.30;4.63;;;;;;;21.81;57.64;100105.94;5137617;27;20078;-85
2021/08/04 11:16:26;;;;;;;5.05;4.57;;;;;;;21.85;56.76;100110.88;5131477;27;20043;-84
2021/08/04 11:19:00;;;;;;;5.07;4.50;;;;;;;21.80;57.22;100110.47;5140592;27;20061;-86
2021/08/04 11:21:28;;;;;;;5.80;4.88;;;;;;;21.78;57.28;100109.78;5135469;27;20058;-86
2021/08/04 11:23:55;;;;;;;5.95;4.60;;;;;;;21.70;57.51;100096.22;5135288;27;20057;-84
2021/08/04 11:26:38;;;;;;;5.57;4.53;;;;;;;21.64;56.50;100096.81;5138749;27;20122;-85
2021/08/04 11:29:07;;;;;;;5.38;4.75;;;;;;;21.58;57.37;100106.31;5142335;27;20043;-85
2021/08/04 11:31:35;;;;;;;4.93;4.43;;;;;;;21.47;56.61;100102.97;5137351;27;20057;-84